Terminal Aerodrome Forecast
Issued by NWS

Home | Current Version | Previous Version | Text Only | Print | Product List | Glossary On
Versions: 1 2 3 4 5 6 7 8 9 10 11 12 13 14
635
FTUS41 KILN 252340
TAFLCK
TAF
KLCK 252340Z 2600/2624 21005KT P6SM SKC
     FM261600 20006KT P6SM -SHRA VCTS SCT025CB OVC090
      AMD NOT SKED=

USA.gov is the U.S. government's official web portal to all federal, state and local government web resources and services.